Time;durP1;ratioP1;P1;durP2;ratioP2;P2;SDS_P1;SDS_P2;PMS_P1;PMS_P2;Temp;Humidity;BMP_temperature;BMP_pressure;BME280_temperature;BME280_humidity;BME280_pressure;Samples;Min_cycle;Max_cycle;Signal;HPM_P1;HPM_P2
2022/04/06 00:00:12;;;;;;;33.33;14.23;;;;;;;;;;5025438;28;20190;-68
2022/04/06 00:02:39;;;;;;;34.20;13.50;;;;;;;;;;5014452;28;20207;-68
2022/04/06 00:05:08;;;;;;;38.97;14.80;;;;;;;;;;5020182;28;20251;-68
2022/04/06 00:07:33;;;;;;;38.95;15.15;;;;;;;;;;5026795;28;20269;-69
2022/04/06 00:09:58;;;;;;;37.65;15.55;;;;;;;;;;5016929;28;20309;-68
2022/04/06 00:12:24;;;;;;;31.67;15.40;;;;;;;;;;5024735;28;20236;-68
2022/04/06 00:14:49;;;;;;;42.50;16.95;;;;;;;;;;5022472;28;20236;-68
2022/04/06 00:17:14;;;;;;;36.85;15.27;;;;;;;;;;5013862;28;20213;-68
2022/04/06 00:19:41;;;;;;;42.60;16.52;;;;;;;;;;5019844;28;20576;-68
2022/04/06 00:22:06;;;;;;;38.88;17.33;;;;;;;;;;5026077;28;20198;-68
2022/04/06 00:24:32;;;;;;;40.17;17.58;;;;;;;;;;5021775;28;20178;-68
2022/04/06 00:26:58;;;;;;;45.33;18.20;;;;;;;;;;5020582;28;20189;-68
2022/04/06 00:29:23;;;;;;;38.10;18.98;;;;;;;;;;5026751;28;20493;-68
2022/04/06 00:31:49;;;;;;;46.67;19.15;;;;;;;;;;5018644;28;20198;-69
2022/04/06 00:34:14;;;;;;;42.85;19.00;;;;;;;;;;5020005;28;20182;-68
2022/04/06 00:36:39;;;;;;;42.60;20.48;;;;;;;;;;5023764;28;20729;-69
2022/04/06 00:39:05;;;;;;;38.33;20.73;;;;;;;;;;5024154;28;20690;-69
2022/04/06 00:41:30;;;;;;;44.00;21.02;;;;;;;;;;5022693;28;20183;-69
2022/04/06 00:44:17;;;;;;;39.60;20.77;;;;;;;;;;5024712;28;20586;-69
2022/04/06 00:46:44;;;;;;;46.13;21.05;;;;;;;;;;5022203;28;20484;-69
2022/04/06 00:49:13;;;;;;;47.15;20.58;;;;;;;;;;5027753;28;20213;-69
2022/04/06 00:51:41;;;;;;;49.63;22.20;;;;;;;;;;5028658;28;20182;-69
2022/04/06 00:54:07;;;;;;;49.25;21.63;;;;;;;;;;5025789;28;20190;-69
2022/04/06 00:56:33;;;;;;;52.58;24.75;;;;;;;;;;5028617;28;20231;-69
2022/04/06 00:58:59;;;;;;;45.65;23.88;;;;;;;;;;5028949;28;20209;-69
2022/04/06 01:01:25;;;;;;;47.92;22.83;;;;;;;;;;5024229;28;20221;-69
2022/04/06 01:03:50;;;;;;;54.33;24.88;;;;;;;;;;5030080;28;20237;-69
2022/04/06 01:06:15;;;;;;;47.50;22.73;;;;;;;;;;5029642;28;20182;-69
2022/04/06 01:08:41;;;;;;;44.63;22.15;;;;;;;;;;5028465;28;20718;-68
2022/04/06 01:11:06;;;;;;;48.95;23.27;;;;;;;;;;5017822;28;20206;-69
2022/04/06 01:13:32;;;;;;;49.42;22.63;;;;;;;;;;5024060;28;20181;-69
2022/04/06 01:15:57;;;;;;;53.90;22.60;;;;;;;;;;5022336;28;20198;-68
2022/04/06 01:18:23;;;;;;;44.53;21.83;;;;;;;;;;5021718;28;20686;-69
2022/04/06 01:20:48;;;;;;;41.80;19.17;;;;;;;;;;5022923;28;20262;-69
2022/04/06 01:23:14;;;;;;;48.03;20.20;;;;;;;;;;5026734;28;20213;-69
2022/04/06 01:25:40;;;;;;;37.90;18.88;;;;;;;;;;5021479;28;20186;-69
2022/04/06 01:28:07;;;;;;;39.78;18.23;;;;;;;;;;5021408;28;20197;-69
2022/04/06 01:30:32;;;;;;;42.53;19.05;;;;;;;;;;5024645;28;20206;-69
2022/04/06 01:32:58;;;;;;;46.53;18.37;;;;;;;;;;5023634;28;20263;-69
2022/04/06 01:35:24;;;;;;;34.47;16.98;;;;;;;;;;5029336;28;20313;-69
2022/04/06 01:37:49;;;;;;;39.77;17.73;;;;;;;;;;5024456;28;20556;-69
2022/04/06 01:40:15;;;;;;;36.95;17.00;;;;;;;;;;5026620;28;20239;-69
2022/04/06 01:42:40;;;;;;;31.20;15.00;;;;;;;;;;5026676;28;20296;-69
2022/04/06 01:45:06;;;;;;;37.23;16.67;;;;;;;;;;5025384;28;20205;-69
2022/04/06 01:47:32;;;;;;;33.10;14.02;;;;;;;;;;5020694;28;20183;-69
2022/04/06 01:52:41;;;;;;;30.58;13.50;;;;;;;;;;5022505;28;20237;-69
2022/04/06 01:55:09;;;;;;;27.03;13.10;;;;;;;;;;5016470;28;20194;-68
2022/04/06 01:57:35;;;;;;;29.53;13.03;;;;;;;;;;5027175;28;20193;-68
2022/04/06 02:00:01;;;;;;;30.50;12.75;;;;;;;;;;5007549;28;20249;-67
2022/04/06 02:02:30;;;;;;;24.13;12.38;;;;;;;;;;5021496;28;20757;-68
2022/04/06 02:04:57;;;;;;;41.22;13.95;;;;;;;;;;5011973;28;20552;-68
2022/04/06 02:07:23;;;;;;;39.10;14.23;;;;;;;;;;5024420;28;20181;-68
2022/04/06 02:09:49;;;;;;;29.00;14.40;;;;;;;;;;5017853;28;20639;-68
2022/04/06 02:12:15;;;;;;;29.08;14.35;;;;;;;;;;5022280;28;20178;-68
2022/04/06 02:14:41;;;;;;;31.35;15.32;;;;;;;;;;5023226;28;20178;-68
2022/04/06 02:17:08;;;;;;;38.17;16.13;;;;;;;;;;5021917;28;20493;-68
2022/04/06 02:19:36;;;;;;;42.38;17.15;;;;;;;;;;5026473;28;20222;-69
2022/04/06 02:22:01;;;;;;;40.13;16.38;;;;;;;;;;5027560;28;20653;-68
2022/04/06 02:24:27;;;;;;;39.13;17.60;;;;;;;;;;5026514;28;20189;-68
2022/04/06 02:26:52;;;;;;;40.90;17.58;;;;;;;;;;5016548;28;20191;-68
2022/04/06 02:29:17;;;;;;;43.17;16.83;;;;;;;;;;5021725;28;20190;-68
2022/04/06 02:31:43;;;;;;;37.22;17.88;;;;;;;;;;5027812;28;20208;-68
2022/04/06 02:34:08;;;;;;;43.33;17.45;;;;;;;;;;5021607;28;20186;-68
2022/04/06 02:36:34;;;;;;;37.80;18.05;;;;;;;;;;5024858;28;20193;-68
2022/04/06 02:39:00;;;;;;;39.78;17.90;;;;;;;;;;5027207;28;20229;-68
2022/04/06 02:41:26;;;;;;;36.28;17.80;;;;;;;;;;5026980;28;20178;-68
2022/04/06 02:43:51;;;;;;;44.22;17.88;;;;;;;;;;5018786;28;20210;-68
2022/04/06 02:46:17;;;;;;;36.75;18.02;;;;;;;;;;5020748;28;20174;-68
2022/04/06 02:48:42;;;;;;;41.20;18.73;;;;;;;;;;5022523;28;20198;-68
2022/04/06 02:51:08;;;;;;;40.30;17.80;;;;;;;;;;5024808;28;20301;-68
2022/04/06 02:53:33;;;;;;;33.35;17.45;;;;;;;;;;5028153;28;20522;-67
2022/04/06 02:55:58;;;;;;;38.78;17.70;;;;;;;;;;5024168;28;20273;-68
2022/04/06 02:58:24;;;;;;;38.05;18.08;;;;;;;;;;5026693;28;20525;-67
2022/04/06 03:00:49;;;;;;;38.13;17.52;;;;;;;;;;5027717;28;20323;-68
2022/04/06 03:03:15;;;;;;;39.75;17.40;;;;;;;;;;5022146;28;20290;-68
2022/04/06 03:05:40;;;;;;;33.37;17.40;;;;;;;;;;5026645;28;20186;-68
2022/04/06 03:08:06;;;;;;;36.85;17.13;;;;;;;;;;5026385;28;20217;-69
2022/04/06 03:10:32;;;;;;;38.50;17.47;;;;;;;;;;5026663;28;20205;-68
2022/04/06 03:12:57;;;;;;;32.47;16.17;;;;;;;;;;5021328;28;20170;-68
2022/04/06 03:15:22;;;;;;;35.20;15.77;;;;;;;;;;5027204;28;20289;-68
2022/04/06 03:17:48;;;;;;;36.80;17.35;;;;;;;;;;5025195;28;20179;-68
2022/04/06 03:20:13;;;;;;;29.65;14.93;;;;;;;;;;5025486;28;20190;-68
2022/04/06 03:22:39;;;;;;;34.55;15.88;;;;;;;;;;5013290;28;20213;-68
2022/04/06 03:25:06;;;;;;;34.20;14.95;;;;;;;;;;5013213;28;20193;-68
2022/04/06 03:27:32;;;;;;;31.90;14.80;;;;;;;;;;5026527;28;20182;-68
2022/04/06 03:29:57;;;;;;;29.45;14.50;;;;;;;;;;5007792;28;20237;-68
2022/04/06 03:32:23;;;;;;;37.08;13.90;;;;;;;;;;5026470;28;20239;-68
2022/04/06 03:34:48;;;;;;;26.73;12.90;;;;;;;;;;5025821;28;20182;-68
2022/04/06 03:37:13;;;;;;;34.03;13.63;;;;;;;;;;5015904;28;20265;-69
2022/04/06 03:39:39;;;;;;;28.75;12.52;;;;;;;;;;5025345;28;20570;-68
2022/04/06 03:42:05;;;;;;;27.02;12.20;;;;;;;;;;5026470;28;20469;-68
2022/04/06 03:44:30;;;;;;;26.95;11.93;;;;;;;;;;5023285;28;20213;-68
2022/04/06 03:46:56;;;;;;;31.38;11.70;;;;;;;;;;5025159;28;20213;-68
2022/04/06 03:49:21;;;;;;;25.25;12.02;;;;;;;;;;5025277;28;20324;-68
2022/04/06 03:51:47;;;;;;;19.92;11.10;;;;;;;;;;5026221;28;20218;-68
2022/04/06 03:54:12;;;;;;;27.55;10.93;;;;;;;;;;5023169;28;20197;-68
2022/04/06 03:56:38;;;;;;;24.08;11.13;;;;;;;;;;5026320;28;20186;-68
2022/04/06 03:59:04;;;;;;;23.60;11.23;;;;;;;;;;5026118;28;20559;-68
2022/04/06 04:01:30;;;;;;;24.88;10.07;;;;;;;;;;5026216;28;20182;-68
2022/04/06 04:03:56;;;;;;;26.45;10.98;;;;;;;;;;5024900;28;20665;-68
2022/04/06 04:06:21;;;;;;;20.58;9.68;;;;;;;;;;5026358;28;20189;-68
2022/04/06 04:08:46;;;;;;;22.70;10.20;;;;;;;;;;5018165;28;20236;-68
2022/04/06 04:11:12;;;;;;;21.48;10.00;;;;;;;;;;5020937;28;20264;-68
2022/04/06 04:13:37;;;;;;;18.02;8.90;;;;;;;;;;5008505;28;20583;-69
2022/04/06 04:16:03;;;;;;;22.75;9.70;;;;;;;;;;5023586;28;20620;-68
2022/04/06 04:18:28;;;;;;;21.80;9.38;;;;;;;;;;5021305;28;20186;-68
2022/04/06 04:21:32;;;;;;;21.02;8.13;;;;;;;;;;5027834;28;20181;-68
2022/04/06 04:23:41;;;;;;;17.48;7.47;;;;;;;;;;5013696;28;20269;-69
2022/04/06 04:26:06;;;;;;;20.08;7.35;;;;;;;;;;5025851;28;20178;-69
2022/04/06 04:28:32;;;;;;;19.23;7.93;;;;;;;;;;5029437;28;20178;-68
2022/04/06 04:30:57;;;;;;;24.75;7.88;;;;;;;;;;5029685;28;20224;-67
2022/04/06 04:33:22;;;;;;;17.02;6.95;;;;;;;;;;5026669;28;20190;-67
2022/04/06 04:35:48;;;;;;;19.60;7.50;;;;;;;;;;5029170;28;20267;-67
2022/04/06 04:38:14;;;;;;;14.77;6.30;;;;;;;;;;5027204;28;20190;-68
2022/04/06 04:40:39;;;;;;;19.65;6.57;;;;;;;;;;5028394;28;20194;-68
2022/04/06 04:43:05;;;;;;;18.20;6.63;;;;;;;;;;5026634;28;20213;-68
2022/04/06 04:45:30;;;;;;;14.98;5.88;;;;;;;;;;5029373;28;20182;-67
2022/04/06 04:47:57;;;;;;;18.10;6.85;;;;;;;;;;5028874;28;20653;-67
2022/04/06 04:50:22;;;;;;;15.90;6.20;;;;;;;;;;5028778;28;20320;-67
2022/04/06 04:52:48;;;;;;;16.58;6.53;;;;;;;;;;5028336;28;20201;-68
2022/04/06 04:55:13;;;;;;;16.10;6.35;;;;;;;;;;5025921;28;20182;-68
2022/04/06 04:57:39;;;;;;;13.18;5.60;;;;;;;;;;5025469;28;20178;-68
2022/04/06 05:00:06;;;;;;;15.70;5.38;;;;;;;;;;5026804;28;20182;-68
2022/04/06 05:02:31;;;;;;;12.90;5.10;;;;;;;;;;5024060;28;20547;-68
2022/04/06 05:04:57;;;;;;;16.58;5.38;;;;;;;;;;5017331;28;20198;-68
2022/04/06 05:07:22;;;;;;;15.02;4.57;;;;;;;;;;5015662;28;20665;-68
2022/04/06 05:09:49;;;;;;;10.23;4.30;;;;;;;;;;5021881;28;20650;-68
2022/04/06 05:12:15;;;;;;;14.73;4.88;;;;;;;;;;5020682;28;20666;-68
2022/04/06 05:14:41;;;;;;;11.43;3.80;;;;;;;;;;5022997;28;20186;-68
2022/04/06 05:17:07;;;;;;;13.40;4.47;;;;;;;;;;5026309;28;20271;-67
2022/04/06 05:19:32;;;;;;;12.73;4.22;;;;;;;;;;5027171;28;20694;-67
2022/04/06 05:21:59;;;;;;;11.88;3.53;;;;;;;;;;5026495;28;20182;-67
2022/04/06 05:24:25;;;;;;;8.52;3.30;;;;;;;;;;5015329;28;20214;-68
2022/04/06 05:26:50;;;;;;;10.45;3.65;;;;;;;;;;5028222;28;20174;-67
2022/04/06 05:29:16;;;;;;;10.68;3.25;;;;;;;;;;5020736;28;20182;-67
2022/04/06 05:31:41;;;;;;;9.23;2.58;;;;;;;;;;5024660;28;20569;-68
2022/04/06 05:34:07;;;;;;;10.15;2.80;;;;;;;;;;5023476;28;20187;-67
2022/04/06 05:36:32;;;;;;;9.32;2.75;;;;;;;;;;5025686;28;20478;-67
2022/04/06 05:38:58;;;;;;;9.43;2.17;;;;;;;;;;5017922;28;20178;-68
2022/04/06 05:41:23;;;;;;;9.05;2.63;;;;;;;;;;5025350;28;20617;-68
2022/04/06 05:43:49;;;;;;;8.45;2.22;;;;;;;;;;5021853;28;20222;-68
2022/04/06 05:46:14;;;;;;;9.00;2.10;;;;;;;;;;5023604;28;20185;-68
2022/04/06 05:48:39;;;;;;;7.43;2.60;;;;;;;;;;5026638;28;20697;-68
2022/04/06 05:51:05;;;;;;;12.73;2.50;;;;;;;;;;5023161;28;20545;-68
2022/04/06 05:53:30;;;;;;;9.10;2.72;;;;;;;;;;5006936;28;20668;-68
2022/04/06 05:55:56;;;;;;;12.80;2.78;;;;;;;;;;5022018;28;20657;-68
2022/04/06 05:58:21;;;;;;;10.77;2.28;;;;;;;;;;5025061;28;20651;-68
2022/04/06 06:00:47;;;;;;;8.98;2.10;;;;;;;;;;5018760;28;20583;-68
2022/04/06 06:03:12;;;;;;;8.23;2.33;;;;;;;;;;5015375;28;20217;-68
2022/04/06 06:05:38;;;;;;;11.32;2.35;;;;;;;;;;5019929;28;20660;-68
2022/04/06 06:08:03;;;;;;;14.32;2.70;;;;;;;;;;5026918;28;20192;-68
2022/04/06 06:10:29;;;;;;;7.30;2.42;;;;;;;;;;5023188;28;20661;-66
2022/04/06 06:12:54;;;;;;;9.73;3.08;;;;;;;;;;5023166;28;20537;-68
2022/04/06 06:15:19;;;;;;;14.45;3.05;;;;;;;;;;5026226;28;20218;-67
2022/04/06 06:17:45;;;;;;;11.20;3.15;;;;;;;;;;5026131;28;20209;-68
2022/04/06 06:20:10;;;;;;;9.63;2.80;;;;;;;;;;5024884;28;20517;-68
2022/04/06 06:22:36;;;;;;;14.02;3.47;;;;;;;;;;5025227;28;20202;-67
2022/04/06 06:25:02;;;;;;;11.80;3.40;;;;;;;;;;5023728;28;20197;-67
2022/04/06 06:27:28;;;;;;;15.27;3.20;;;;;;;;;;5025080;28;20186;-67
2022/04/06 06:29:53;;;;;;;13.95;3.25;;;;;;;;;;5023961;28;20197;-68
2022/04/06 06:32:18;;;;;;;9.13;2.90;;;;;;;;;;5019369;28;20294;-68
2022/04/06 06:34:44;;;;;;;9.52;2.88;;;;;;;;;;5020762;28;20186;-68
2022/04/06 06:37:10;;;;;;;13.45;3.47;;;;;;;;;;5024953;28;20177;-68
2022/04/06 06:39:36;;;;;;;9.18;3.20;;;;;;;;;;5018993;28;20530;-69
2022/04/06 06:42:05;;;;;;;10.35;3.40;;;;;;;;;;5021800;28;20193;-68
2022/04/06 06:44:31;;;;;;;6.88;3.20;;;;;;;;;;5015865;28;20195;-69
2022/04/06 06:46:56;;;;;;;10.82;3.50;;;;;;;;;;5019390;28;20193;-69
2022/04/06 06:49:21;;;;;;;13.32;3.45;;;;;;;;;;5027636;28;20189;-67
2022/04/06 06:51:47;;;;;;;8.82;3.60;;;;;;;;;;5028414;28;20284;-67
2022/04/06 06:54:12;;;;;;;8.93;3.10;;;;;;;;;;5024742;28;20324;-67
2022/04/06 06:56:37;;;;;;;12.63;3.80;;;;;;;;;;5027267;28;20266;-69
2022/04/06 06:59:03;;;;;;;12.95;3.92;;;;;;;;;;5020111;28;20272;-68
2022/04/06 07:01:28;;;;;;;11.07;3.47;;;;;;;;;;5027260;28;20222;-68
2022/04/06 07:03:53;;;;;;;8.40;3.25;;;;;;;;;;5026305;28;20243;-67
2022/04/06 07:06:19;;;;;;;9.32;3.35;;;;;;;;;;5018652;28;20178;-68
2022/04/06 07:08:44;;;;;;;12.10;3.85;;;;;;;;;;5026986;28;20230;-68
2022/04/06 07:11:09;;;;;;;12.77;3.75;;;;;;;;;;5019774;28;20631;-68
2022/04/06 07:13:35;;;;;;;15.07;3.65;;;;;;;;;;5024643;28;20638;-68
2022/04/06 07:16:01;;;;;;;14.40;3.58;;;;;;;;;;5025878;28;20178;-68
2022/04/06 07:18:27;;;;;;;10.50;3.88;;;;;;;;;;5022280;28;20268;-68
2022/04/06 07:20:53;;;;;;;11.35;4.55;;;;;;;;;;5024337;28;20182;-68
2022/04/06 07:23:18;;;;;;;12.65;4.13;;;;;;;;;;5027231;28;20553;-68
2022/04/06 07:25:44;;;;;;;12.98;4.60;;;;;;;;;;5027421;28;20190;-68
2022/04/06 07:28:09;;;;;;;14.57;4.50;;;;;;;;;;5026821;28;20680;-68
2022/04/06 07:30:35;;;;;;;12.30;4.35;;;;;;;;;;5024013;28;20224;-68
2022/04/06 07:33:00;;;;;;;13.43;4.90;;;;;;;;;;5012473;28;20258;-68
2022/04/06 07:35:27;;;;;;;12.93;4.95;;;;;;;;;;5023270;28;20220;-68
2022/04/06 07:37:52;;;;;;;18.65;5.20;;;;;;;;;;5028000;28;20214;-68
2022/04/06 07:40:21;;;;;;;17.23;5.00;;;;;;;;;;5026568;28;20229;-68
2022/04/06 07:42:46;;;;;;;17.30;5.43;;;;;;;;;;5026646;28;20252;-68
2022/04/06 07:45:14;;;;;;;14.68;5.45;;;;;;;;;;5026986;28;20182;-68
2022/04/06 07:47:40;;;;;;;15.73;5.72;;;;;;;;;;5021410;28;20177;-68
2022/04/06 07:50:07;;;;;;;14.27;5.50;;;;;;;;;;5019250;28;20186;-68
2022/04/06 07:52:33;;;;;;;11.90;5.47;;;;;;;;;;5020036;28;20206;-67
2022/04/06 07:54:59;;;;;;;12.07;5.45;;;;;;;;;;5022601;28;20221;-67
2022/04/06 07:57:25;;;;;;;18.85;5.90;;;;;;;;;;5023598;28;20601;-69
2022/04/06 07:59:51;;;;;;;13.27;5.80;;;;;;;;;;5025457;28;20266;-68
2022/04/06 08:02:17;;;;;;;12.30;5.13;;;;;;;;;;5027408;28;20178;-68
2022/04/06 08:04:42;;;;;;;11.45;5.18;;;;;;;;;;5017437;28;20717;-68
2022/04/06 08:07:08;;;;;;;18.63;5.60;;;;;;;;;;5026231;28;20295;-68
2022/04/06 08:09:36;;;;;;;14.48;5.68;;;;;;;;;;5022895;28;20229;-68
2022/04/06 08:12:01;;;;;;;13.43;5.50;;;;;;;;;;5021805;28;20189;-68
2022/04/06 08:14:27;;;;;;;13.60;4.60;;;;;;;;;;5029053;28;20174;-68
2022/04/06 08:16:55;;;;;;;14.90;5.43;;;;;;;;;;5016454;28;20232;-68
2022/04/06 08:19:21;;;;;;;11.75;5.53;;;;;;;;;;5027675;28;20219;-68
2022/04/06 08:21:47;;;;;;;10.75;4.70;;;;;;;;;;5030536;28;20283;-69
2022/04/06 08:24:12;;;;;;;18.50;5.80;;;;;;;;;;5028220;28;20291;-69
2022/04/06 08:26:38;;;;;;;12.07;4.70;;;;;;;;;;5029304;28;20221;-69
2022/04/06 08:29:03;;;;;;;10.88;4.20;;;;;;;;;;5030265;28;20185;-69
2022/04/06 08:31:28;;;;;;;7.90;3.70;;;;;;;;;;5030115;28;20228;-68
2022/04/06 08:33:54;;;;;;;8.95;3.70;;;;;;;;;;5030146;28;20269;-68
2022/04/06 08:36:20;;;;;;;10.13;3.25;;;;;;;;;;5027916;28;20190;-69
2022/04/06 08:38:46;;;;;;;12.60;3.60;;;;;;;;;;5030675;28;20178;-69
2022/04/06 08:41:15;;;;;;;10.73;3.63;;;;;;;;;;5029956;28;20182;-68
2022/04/06 08:43:41;;;;;;;10.35;3.38;;;;;;;;;;5030433;28;20597;-69
2022/04/06 08:46:10;;;;;;;11.00;2.80;;;;;;;;;;5027873;28;20217;-69
2022/04/06 08:48:36;;;;;;;10.85;2.63;;;;;;;;;;5030542;28;20193;-69
2022/04/06 08:51:05;;;;;;;8.82;2.97;;;;;;;;;;5029100;28;20186;-69
2022/04/06 08:53:30;;;;;;;7.75;2.47;;;;;;;;;;5029851;28;20244;-69
2022/04/06 08:55:56;;;;;;;11.90;3.13;;;;;;;;;;5029460;28;20210;-69
2022/04/06 08:58:21;;;;;;;8.10;2.70;;;;;;;;;;5029936;28;20214;-69
2022/04/06 09:00:47;;;;;;;6.50;2.28;;;;;;;;;;5021841;28;20479;-69
2022/04/06 09:03:14;;;;;;;5.57;2.45;;;;;;;;;;5029227;28;20256;-68
2022/04/06 09:05:39;;;;;;;9.80;2.33;;;;;;;;;;5025779;28;20541;-68
2022/04/06 09:08:04;;;;;;;4.70;2.33;;;;;;;;;;5029639;28;20197;-70
2022/04/06 09:10:35;;;;;;;6.97;2.20;;;;;;;;;;5021862;28;20240;-69
2022/04/06 09:13:14;;;;;;;8.20;2.17;;;;;;;;;;5024893;28;20467;-68
2022/04/06 09:15:41;;;;;;;11.23;2.58;;;;;;;;;;5024271;28;20245;-68
2022/04/06 09:18:07;;;;;;;6.25;2.28;;;;;;;;;;5029914;28;20186;-69
2022/04/06 09:20:32;;;;;;;8.07;1.80;;;;;;;;;;5025332;28;20232;-69
2022/04/06 09:23:02;;;;;;;5.63;1.92;;;;;;;;;;5028207;28;20267;-69
2022/04/06 09:25:38;;;;;;;7.57;2.00;;;;;;;;;;5026938;28;20199;-68
2022/04/06 09:28:09;;;;;;;4.20;1.90;;;;;;;;;;5028295;28;20547;-68
2022/04/06 09:30:38;;;;;;;4.45;1.73;;;;;;;;;;5023621;28;20704;-69
2022/04/06 09:33:04;;;;;;;6.40;1.92;;;;;;;;;;5024399;28;20312;-68
2022/04/06 09:35:32;;;;;;;5.43;2.20;;;;;;;;;;5030053;28;20297;-69
2022/04/06 09:38:14;;;;;;;8.20;1.95;;;;;;;;;;5028553;28;20285;-68
2022/04/06 09:40:41;;;;;;;3.47;1.90;;;;;;;;;;5029949;28;20543;-68
2022/04/06 09:43:08;;;;;;;6.45;2.10;;;;;;;;;;5012097;28;20256;-69
2022/04/06 09:48:18;;;;;;;3.53;2.42;;;;;;;;;;5024966;28;20228;-69
2022/04/06 09:50:55;;;;;;;7.57;2.30;;;;;;;;;;5016756;28;20218;-69
2022/04/06 09:53:26;;;;;;;8.50;2.53;;;;;;;;;;5024749;28;20691;-69
2022/04/06 09:55:54;;;;;;;13.25;2.78;;;;;;;;;;5024770;28;20188;-68
2022/04/06 09:58:21;;;;;;;10.38;2.92;;;;;;;;;;5029002;28;20221;-68
2022/04/06 10:00:48;;;;;;;7.03;3.13;;;;;;;;;;5017410;28;20190;-67
2022/04/06 10:03:18;;;;;;;7.82;3.15;;;;;;;;;;5027929;28;20216;-67
2022/04/06 10:05:44;;;;;;;10.85;3.50;;;;;;;;;;5025765;28;20263;-68
2022/04/06 10:08:10;;;;;;;11.32;3.25;;;;;;;;;;5027455;28;20190;-68
2022/04/06 10:10:38;;;;;;;7.32;3.60;;;;;;;;;;5025419;28;20646;-69
2022/04/06 10:13:04;;;;;;;6.22;3.30;;;;;;;;;;5027312;28;20757;-69
2022/04/06 10:15:30;;;;;;;7.25;3.30;;;;;;;;;;5022205;28;20186;-68
2022/04/06 10:17:55;;;;;;;6.97;3.53;;;;;;;;;;5023155;28;21296;-68
2022/04/06 10:20:35;;;;;;;8.25;3.90;;;;;;;;;;5024373;28;20647;-69
2022/04/06 10:23:13;;;;;;;14.32;4.57;;;;;;;;;;5026284;28;20203;-68
2022/04/06 10:25:56;;;;;;;7.78;4.10;;;;;;;;;;5022654;28;20178;-69
2022/04/06 10:28:22;;;;;;;12.10;5.38;;;;;;;;;;5025825;28;20251;-68
2022/04/06 10:31:30;;;;;;;8.75;4.53;;;;;;;;;;5025514;28;20612;-68
2022/04/06 10:34:16;;;;;;;10.98;4.60;;;;;;;;;;5020313;28;20186;-69
2022/04/06 10:36:42;;;;;;;12.80;5.25;;;;;;;;;;5026203;28;20396;-69
2022/04/06 10:39:08;;;;;;;14.32;5.55;;;;;;;;;;5026086;28;20195;-68
2022/04/06 10:41:35;;;;;;;8.30;5.05;;;;;;;;;;5023619;28;20197;-68
2022/04/06 10:44:00;;;;;;;12.10;5.55;;;;;;;;;;5026503;28;20194;-69
2022/04/06 10:46:38;;;;;;;9.40;5.47;;;;;;;;;;5024876;28;20392;-69
2022/04/06 10:49:06;;;;;;;11.05;5.90;;;;;;;;;;5025772;28;20280;-68
2022/04/06 10:51:34;;;;;;;11.43;5.53;;;;;;;;;;5024317;28;20967;-69
2022/04/06 10:54:11;;;;;;;9.02;5.68;;;;;;;;;;5026844;28;20236;-69
2022/04/06 10:56:46;;;;;;;11.43;5.85;;;;;;;;;;5025505;28;20182;-69
2022/04/06 10:59:24;;;;;;;10.48;6.18;;;;;;;;;;5008533;28;20182;-68
2022/04/06 11:02:25;;;;;;;17.88;6.32;;;;;;;;;;5008462;28;20674;-68
2022/04/06 11:04:52;;;;;;;10.48;6.00;;;;;;;;;;5025233;28;20185;-67
2022/04/06 11:10:18;;;;;;;12.27;6.18;;;;;;;;;;5025178;28;20735;-68
2022/04/06 11:13:02;;;;;;;13.43;6.70;;;;;;;;;;5019572;28;20198;-69
2022/04/06 11:15:37;;;;;;;13.82;6.75;;;;;;;;;;5023633;28;20188;-68
2022/04/06 11:18:03;;;;;;;11.57;6.53;;;;;;;;;;5025703;28;20587;-69
2022/04/06 11:20:31;;;;;;;14.15;6.45;;;;;;;;;;5026114;28;20288;-67
2022/04/06 11:22:58;;;;;;;12.88;6.60;;;;;;;;;;5024076;28;20225;-69
2022/04/06 11:25:30;;;;;;;14.77;7.00;;;;;;;;;;5027292;28;20598;-69
2022/04/06 11:28:11;;;;;;;11.20;7.43;;;;;;;;;;5017330;28;20194;-69
2022/04/06 11:30:42;;;;;;;11.88;6.72;;;;;;;;;;5027253;28;20205;-69
2022/04/06 11:33:07;;;;;;;13.73;7.50;;;;;;;;;;5023818;28;20634;-69
2022/04/06 11:35:37;;;;;;;8.73;6.60;;;;;;;;;;5027995;28;20243;-68
2022/04/06 11:38:08;;;;;;;12.52;7.55;;;;;;;;;;5026390;28;20189;-68
2022/04/06 11:40:37;;;;;;;13.45;7.55;;;;;;;;;;5027161;28;20186;-69
2022/04/06 11:43:06;;;;;;;8.68;6.47;;;;;;;;;;5024549;28;20752;-68
2022/04/06 11:45:32;;;;;;;12.40;7.73;;;;;;;;;;5025777;28;20182;-69
2022/04/06 11:48:04;;;;;;;11.57;6.28;;;;;;;;;;5025712;28;20198;-69
2022/04/06 11:50:31;;;;;;;13.57;7.55;;;;;;;;;;5026970;28;20182;-69
2022/04/06 11:53:09;;;;;;;9.73;5.97;;;;;;;;;;5023232;28;20273;-69
2022/04/06 11:55:42;;;;;;;9.02;6.47;;;;;;;;;;5025382;28;20205;-68
2022/04/06 11:58:08;;;;;;;14.00;7.18;;;;;;;;;;5022753;28;20304;-69
2022/04/06 12:00:34;;;;;;;14.20;7.10;;;;;;;;;;5015269;28;20289;-68
2022/04/06 12:03:02;;;;;;;9.45;6.13;;;;;;;;;;5021328;28;20213;-68
2022/04/06 12:05:28;;;;;;;7.32;5.68;;;;;;;;;;5025137;28;20216;-70
2022/04/06 12:08:15;;;;;;;11.00;6.57;;;;;;;;;;5027018;28;20209;-68
2022/04/06 12:10:48;;;;;;;11.85;6.07;;;;;;;;;;5025927;28;20269;-68
2022/04/06 12:13:14;;;;;;;9.75;5.40;;;;;;;;;;5025526;28;20210;-67
2022/04/06 12:15:40;;;;;;;8.27;6.07;;;;;;;;;;5026797;28;20256;-68
2022/04/06 12:18:06;;;;;;;9.00;6.20;;;;;;;;;;5024897;28;20615;-68
2022/04/06 12:20:32;;;;;;;8.27;5.90;;;;;;;;;;5026269;28;20178;-68
2022/04/06 12:23:05;;;;;;;10.10;5.53;;;;;;;;;;5025240;28;20197;-68
2022/04/06 12:25:32;;;;;;;10.00;5.45;;;;;;;;;;5027047;28;20174;-68
2022/04/06 12:28:31;;;;;;;9.85;5.57;;;;;;;;;;5025366;28;20182;-69
2022/04/06 12:30:57;;;;;;;12.95;6.18;;;;;;;;;;5025960;28;20222;-69
2022/04/06 12:33:42;;;;;;;10.85;5.43;;;;;;;;;;5025276;28;20261;-68
2022/04/06 12:36:17;;;;;;;12.35;5.75;;;;;;;;;;5026251;28;20618;-68
2022/04/06 12:39:01;;;;;;;8.30;5.45;;;;;;;;;;5026517;28;20185;-68
2022/04/06 12:41:28;;;;;;;9.80;5.30;;;;;;;;;;5026499;28;20660;-68
2022/04/06 12:43:54;;;;;;;7.90;5.65;;;;;;;;;;5028266;28;20596;-68
2022/04/06 12:46:45;;;;;;;10.30;5.60;;;;;;;;;;5027541;28;20178;-69
2022/04/06 12:49:21;;;;;;;10.13;5.80;;;;;;;;;;5027559;28;20186;-69
2022/04/06 12:51:47;;;;;;;9.52;5.80;;;;;;;;;;5025432;28;20855;-69
2022/04/06 12:54:12;;;;;;;9.57;5.78;;;;;;;;;;5016483;28;20269;-69
2022/04/06 12:56:38;;;;;;;6.38;5.50;;;;;;;;;;5020270;28;20208;-69
2022/04/06 12:59:08;;;;;;;11.05;6.32;;;;;;;;;;5024454;28;20272;-69
2022/04/06 13:01:33;;;;;;;13.07;6.65;;;;;;;;;;5029283;28;20189;-68
2022/04/06 13:03:59;;;;;;;13.13;6.25;;;;;;;;;;5023459;28;20198;-68
2022/04/06 13:06:24;;;;;;;7.38;6.20;;;;;;;;;;5023323;28;20241;-68
2022/04/06 13:08:50;;;;;;;14.15;6.47;;;;;;;;;;5025898;28;20701;-68
2022/04/06 13:11:16;;;;;;;8.73;6.00;;;;;;;;;;5029859;28;20178;-69
2022/04/06 13:13:41;;;;;;;8.02;5.97;;;;;;;;;;5019232;28;20638;-68
2022/04/06 13:16:06;;;;;;;10.77;5.72;;;;;;;;;;5029337;28;20204;-68
2022/04/06 13:18:32;;;;;;;8.25;5.38;;;;;;;;;;5025650;28;20553;-70
2022/04/06 13:20:57;;;;;;;12.68;5.93;;;;;;;;;;5018713;28;20186;-69
2022/04/06 13:23:22;;;;;;;9.63;5.53;;;;;;;;;;5026788;28;20210;-69
2022/04/06 13:25:48;;;;;;;6.97;5.25;;;;;;;;;;5027435;28;20205;-69
2022/04/06 13:28:13;;;;;;;7.80;4.95;;;;;;;;;;5028481;28;20448;-69
2022/04/06 13:30:39;;;;;;;7.35;4.90;;;;;;;;;;5030660;28;20194;-68
2022/04/06 13:33:04;;;;;;;8.48;5.10;;;;;;;;;;5028042;28;20178;-69
2022/04/06 13:35:30;;;;;;;8.23;4.60;;;;;;;;;;5028776;28;20545;-69
2022/04/06 13:37:55;;;;;;;6.82;4.88;;;;;;;;;;5026816;28;20257;-69
2022/04/06 13:40:20;;;;;;;9.38;4.97;;;;;;;;;;5018750;28;20548;-68
2022/04/06 13:42:46;;;;;;;7.55;5.10;;;;;;;;;;5026855;28;20259;-68
2022/04/06 13:45:11;;;;;;;9.35;4.55;;;;;;;;;;5022889;28;20178;-69
2022/04/06 13:47:36;;;;;;;8.35;4.65;;;;;;;;;;5016070;28;20181;-69
2022/04/06 13:50:03;;;;;;;9.90;5.03;;;;;;;;;;5028272;28;20178;-68
2022/04/06 13:52:29;;;;;;;13.80;5.03;;;;;;;;;;5028201;28;20182;-70
2022/04/06 13:54:56;;;;;;;12.15;4.78;;;;;;;;;;5024186;28;20542;-68
2022/04/06 13:57:22;;;;;;;9.48;4.55;;;;;;;;;;5027303;28;20264;-68
2022/04/06 13:59:47;;;;;;;13.77;4.60;;;;;;;;;;5026894;28;20645;-70
2022/04/06 14:02:13;;;;;;;15.77;4.70;;;;;;;;;;5026118;28;20191;-68
2022/04/06 14:04:39;;;;;;;10.52;4.72;;;;;;;;;;5025533;28;20202;-69
2022/04/06 14:07:05;;;;;;;8.77;4.50;;;;;;;;;;5027863;28;20677;-69
2022/04/06 14:09:30;;;;;;;5.70;3.53;;;;;;;;;;5028283;28;20762;-69
2022/04/06 14:11:57;;;;;;;9.18;4.28;;;;;;;;;;5026383;28;20222;-69
2022/04/06 14:14:23;;;;;;;5.35;3.95;;;;;;;;;;5027085;28;20198;-68
2022/04/06 14:16:48;;;;;;;7.63;4.07;;;;;;;;;;5026472;28;20170;-69
2022/04/06 14:19:14;;;;;;;8.40;3.72;;;;;;;;;;5026656;28;20228;-68
2022/04/06 14:21:40;;;;;;;6.53;3.92;;;;;;;;;;5028662;28;20190;-69
2022/04/06 14:24:07;;;;;;;7.72;3.78;;;;;;;;;;5024477;28;20296;-69
2022/04/06 14:26:33;;;;;;;6.25;3.25;;;;;;;;;;5027594;28;20182;-70
2022/04/06 14:28:59;;;;;;;6.80;3.50;;;;;;;;;;5019462;28;20182;-68
2022/04/06 14:31:25;;;;;;;10.30;3.80;;;;;;;;;;5025495;28;20262;-69
2022/04/06 14:33:50;;;;;;;7.93;4.05;;;;;;;;;;5023134;28;20190;-68
2022/04/06 14:36:16;;;;;;;5.07;3.70;;;;;;;;;;5026772;28;20185;-68
2022/04/06 14:38:41;;;;;;;9.40;3.83;;;;;;;;;;5023389;28;20315;-68